Elwood, IN

6:39 AM EST on February 20, 2017 (GMT -0500)
Norwood Addition | | Change Station
Active Advisory: Dense Fog Advisory

Elev 20 ft 40.27 °N, 85.83 °W | Updated 13 minutes ago

Fog
Fog
38.3 °F
Feels Like 38 °F
N
1.1
Wind Variable Wind from ESE

Today
High -- | Low -- °F
--% Chance of Precip.
Yesterday
High -- | Low -- °F
Precip. -- in
Pressure 30.20 in
Visibility 0.2 miles
Clouds Overcast 100 ft
Windchill 38 °F
Dew Point 38 °F
Humidity 99%
Rainfall 0.00 in
Snow Depth Not available.
7:29 AM 6:25 PM
Waning Crescent, 35% visible
METAR KMZZ 201115Z AUTO 13003KT 1/4SM FG OVC001 02/02 A3020 RMK AO2 T00210021
Pressure 30.20 in
Visibility 0.2 miles
Clouds Overcast 100 ft
Windchill 38 °F
Dew Point 38 °F
Humidity 99%
Rainfall 0.00 in
Snow Depth Not available.
7:29 AM 6:25 PM
Waning Crescent, 35% visible
METAR KMZZ 201115Z AUTO 13003KT 1/4SM FG OVC001 02/02 A3020 RMK AO2 T00210021

Get Your Daily Forecast Email!

Thanks for signing up!

Be on the lookout for a verification email in your inbox.

You'll start receiving the daily forecast at 8 AM.

×

10-Day Weather Forecast

Almanac

Astronomy

Feb. 20, 2017 Rise Set
Actual Time
Civil Twilight
Nautical Twilight
Astronomical Twilight
Moon
Length of Visible Light
Length of Day
Tomorrow will be .
, % of the Moon is Illuminated

Today's Extremes

State Highs State Lows

Community

WunderPhotos

Upload Photos

1,962,540 photos uploaded!

WunderBlog® & News

Nearby

Air Quality

  Air Quality AQ Index Pollutant
Not available.

Snow Depth

Station Depth Elevation

Earthquake Activity

City Distance Mag. Time & Date
Minimum magnitude displayed is 2.5.

Coastal Water Temperatures

Place Temperature

Stations

Nearby Weather Stations

Station Location Temp. Windchill Dew Point Humidity Wind Precip. Elev Updated Type
                   

Watches & Warnings

Dense Fog Advisory
Issued: 6:12 AM EST Feb. 20, 2017 – National Weather Service

... Dense fog advisory remains in effect until 9 am EST this
morning...

* visibility... one quarter of a mile or less at times.

* Impacts... low visibility, and rapid changes in visibility will
create hazardous driving conditions. Rural areas will
generally see the lowest visibilities.

Precautionary/preparedness actions...

A dense fog advisory means visibilities will frequently be
reduced to less than one quarter mile. If driving... slow down...
use your headlights... and leave plenty of distance ahead of you.